ADDS METAR Data INFO
IDs: Format: Raw Decoded Include TAF

Data at: 1349 UTC 17 Dec 2017

KPDT 171253Z AUTO 16004KT 10SM OVC050 02/M02 A3018 RMK AO2 SLP225 T00171022
KPDT 171153Z AUTO 17006KT 10SM BKN060 OVC080 01/M03 A3020 RMK AO2 SLP233 T00111028 10017 21022 58008
KPDT 171053Z AUTO 19004KT 10SM OVC080 01/M03 A3023 RMK AO2 SLP240 T00111028
KPDT 170953Z AUTO 18006KT 10SM BKN080 BKN110 00/M03 A3023 RMK AO2 SLP241 T00001033
KPDT 170853Z AUTO 16007KT 10SM OVC120 M01/M03 A3023 RMK AO2 SLP241 T10061033 58007
KPDT 170753Z AUTO 15007KT 10SM CLR M01/M03 A3024 RMK AO2 SLP248 T10061033 400441022
KPDT 170653Z AUTO 14005KT 10SM CLR M01/M04 A3025 RMK AO2 SLP251 T10111039
KPDT 170553Z AUTO 17005KT 10SM CLR 00/M03 A3025 RMK AO2 SLP250 T00001033 10033 21011 53002
KPDT 170453Z AUTO 15007KT 10SM CLR M01/M03 A3023 RMK AO2 SLP245 T10061028
KPDT 170353Z 15008KT 10SM CLR M01/M02 A3024 RMK AO2 SLP248 T10061022
KPDT 170253Z 15007KT 10SM SCT090 M01/M02 A3024 RMK AO2 SLP249 T10111022 58004
KPDT 170153Z 17004KT 10SM CLR 01/M01 A3026 RMK AO2 SLP253 T00061011
KPDT 170053Z 00000KT 10SM CLR 01/M02 A3026 RMK AO2 SLP255 T00061017
KPDT 162353Z 00000KT 10SM CLR 03/00 A3025 RMK AO2 SLP251 T00330000 10044 20022 55001
KPDT 162253Z 23003KT 10SM CLR 04/01 A3025 RMK AO2 SLP250 T00390006
KPDT 162153Z 32005KT 10SM CLR 04/01 A3024 RMK AO2 SLP244 T00440006
KPDT 162053Z 30008KT 10SM CLR 04/01 A3025 RMK AO2 SLP251 T00440006 58006
KPDT 161953Z 30008KT 10SM FEW037 03/00 A3027 RMK AO2 SLP257 T00330000
KPDT 161853Z 32004KT 10SM CLR 03/01 A3027 RMK AO2 SLP257 T00330006
KPDT 161753Z 34003KT 10SM CLR 02/00 A3027 RMK AO2 SLP258 T00220000 10022 21017 53013
KPDT 161653Z 28004KT 10SM CLR 02/M01 A3025 RMK AO2 SLP252 T00171006
KPDT 161553Z 00000KT 10SM CLR M01/M02 A3024 RMK AO2 SLP247 T10111022
KPDT 161453Z 00000KT 10SM FEW060 M01/M02 A3023 RMK AO2 SLP246 T10061017 53012
KPDT 161353Z 25003KT 10SM OVC070 00/M01 A3022 RMK AO2 SLP241 T00001006
KPDT 161253Z AUTO 32004KT 10SM FEW110 M01/M02 A3021 RMK AO2 SLP237 T10111022
KPDT 161153Z AUTO 28007KT 10SM FEW013 BKN060 BKN110 00/M01 A3020 RMK AO2 SLP234 60001 70009 T00001011 10017 20000 51006
KPDT 161053Z AUTO 29007KT 10SM BKN110 01/M01 A3019 RMK AO2 SLP232 T00061011
KPDT 160953Z AUTO 28009KT 10SM OVC075 01/M01 A3019 RMK AO2 SLP231 T00111006
KPDT 160853Z AUTO 29004KT 10SM FEW050 OVC095 00/M01 A3018 RMK AO2 SLP227 60001 T00001006 50006
KPDT 160834Z AUTO 34003KT 10SM SCT017 OVC095 01/M01 A3018 RMK AO2 T00061006
KPDT 160814Z AUTO 36003KT 10SM FEW011 BKN015 OVC095 01/M01 A3018 RMK AO2 T00061006
KPDT 160805Z AUTO 02005KT 10SM BKN013 OVC095 01/M01 A3018 RMK AO2 T00061006
KPDT 160753Z AUTO 02005KT 10SM BKN015 OVC100 01/M01 A3018 RMK AO2 SLP228 T00061006 400111028
KPDT 160751Z AUTO VRB04KT 10SM BKN015 OVC100 01/M01 A3017 RMK AO2
KPDT 160730Z AUTO VRB05KT 10SM FEW008 OVC100 00/M01 A3017 RMK AO2 T00001011
KPDT 160653Z AUTO 33006KT 10SM FEW015 SCT050 OVC090 00/M01 A3016 RMK AO2 UPB00E14SNB14E16 SLP221 P0001 T00001011
KPDT 160553Z AUTO 05003KT 10SM OVC047 M01/M01 A3015 RMK AO2 SLP218 60000 I6001 T10061011 10011 21017 53005
KPDT 160453Z AUTO 30004KT 10SM BKN041 OVC050 M01/M02 A3014 RMK AO2 UPB25E53SNB27E36 SLP216 P0000 T10111022
KPDT 160407Z AUTO 32007KT 9SM FEW002 BKN060 OVC075 M01/M02 A3013 RMK AO2 T10111022
KPDT 160353Z 31007KT 10SM FEW017 BKN060 OVC090 M01/M02 A3013 RMK AO2 SLP212 T10061022
KPDT 160337Z 31005KT 10SM SCT017 BKN046 01/M02 A3014 RMK AO2 T00061017
KPDT 160253Z 26003KT 10SM OVC020 01/M01 A3013 RMK AO2 SLP211 I1000 I3001 T00111006 53007
KPDT 160153Z 33003KT 10SM BKN024 BKN032 01/M01 A3011 RMK AO2 SLP206 T00061011